Time;durP1;ratioP1;P1;durP2;ratioP2;P2;SDS_P1;SDS_P2;PMS_P1;PMS_P2;Temp;Humidity;BMP_temperature;BMP_pressure;BME280_temperature;BME280_humidity;BME280_pressure;Samples;Min_cycle;Max_cycle;Signal;HPM_P1;HPM_P2
2021/03/12 00:01:23;;;;;;;;;;;5.50;99.90;;;;;;5092008;28;19916;-68
2021/03/12 00:03:48;;;;;;;;;;;5.50;99.90;;;;;;5091615;28;19918;-70
2021/03/12 00:06:14;;;;;;;;;;;5.50;99.90;;;;;;5091849;28;20313;-68
2021/03/12 00:08:44;;;;;;;;;;;5.50;99.90;;;;;;5091413;28;20356;-70
2021/03/12 00:11:10;;;;;;;;;;;5.50;99.90;;;;;;5091571;28;20403;-70
2021/03/12 00:13:36;;;;;;;;;;;5.50;99.90;;;;;;5088078;28;19908;-68
2021/03/12 00:16:02;;;;;;;;;;;5.40;99.90;;;;;;5090908;28;20286;-71
2021/03/12 00:18:30;;;;;;;;;;;5.40;99.90;;;;;;5089821;28;19916;-69
2021/03/12 00:20:56;;;;;;;;;;;5.40;99.90;;;;;;5091446;28;19915;-73
2021/03/12 00:23:21;;;;;;;;;;;5.40;99.90;;;;;;5091753;28;19912;-71
2021/03/12 00:25:47;;;;;;;;;;;5.40;99.90;;;;;;5093507;28;20360;-72
2021/03/12 00:28:14;;;;;;;;;;;5.30;99.90;;;;;;5095274;28;19959;-73
2021/03/12 00:30:40;;;;;;;;;;;5.30;99.90;;;;;;5095606;28;19920;-76
2021/03/12 00:33:06;;;;;;;;;;;5.30;99.90;;;;;;5078396;28;19907;-72
2021/03/12 00:35:33;;;;;;;;;;;5.30;99.90;;;;;;5095380;28;20322;-75
2021/03/12 00:37:59;;;;;;;;;;;5.40;99.90;;;;;;5094757;28;19916;-73
2021/03/12 00:40:25;;;;;;;;;;;5.30;99.90;;;;;;5095003;28;19912;-76
2021/03/12 00:42:51;;;;;;;;;;;5.40;99.90;;;;;;5080329;28;19915;-73
2021/03/12 00:45:17;;;;;;;;;;;5.40;99.90;;;;;;5089830;28;19964;-74
2021/03/12 00:47:43;;;;;;;;;;;5.40;99.90;;;;;;5094757;28;19920;-76
2021/03/12 00:50:10;;;;;;;;;;;5.40;99.90;;;;;;5077722;28;19957;-75
2021/03/12 00:52:36;;;;;;;;;;;5.50;99.90;;;;;;5094694;28;19908;-74
2021/03/12 00:55:02;;;;;;;;;;;5.50;99.90;;;;;;5076878;28;19908;-75
2021/03/12 00:57:28;;;;;;;;;;;5.50;99.90;;;;;;5095101;28;19920;-74
2021/03/12 00:59:54;;;;;;;;;;;5.50;99.90;;;;;;5094431;28;19919;-74
2021/03/12 01:02:20;;;;;;;;;;;5.50;99.90;;;;;;5094366;28;19942;-73
2021/03/12 01:04:46;;;;;;;;;;;5.50;99.90;;;;;;5094982;28;19912;-72
2021/03/12 01:07:12;;;;;;;;;;;5.50;99.90;;;;;;5094502;28;19912;-75
2021/03/12 01:09:38;;;;;;;;;;;5.60;99.90;;;;;;5094456;28;19969;-73
2021/03/12 01:12:04;;;;;;;;;;;5.60;99.90;;;;;;5094804;28;19924;-75
2021/03/12 01:14:30;;;;;;;;;;;5.60;99.90;;;;;;5093850;28;20295;-73
2021/03/12 01:16:56;;;;;;;;;;;5.60;99.90;;;;;;5093913;28;19919;-72
2021/03/12 01:19:22;;;;;;;;;;;5.60;99.90;;;;;;5094605;28;19965;-73
2021/03/12 01:21:48;;;;;;;;;;;5.70;99.90;;;;;;5094143;28;19916;-73
2021/03/12 01:24:14;;;;;;;;;;;5.70;99.90;;;;;;5093951;28;19912;-75
2021/03/12 01:26:40;;;;;;;;;;;5.70;99.90;;;;;;5076607;28;20280;-73
2021/03/12 01:29:06;;;;;;;;;;;5.70;99.90;;;;;;5078139;28;19927;-77
2021/03/12 01:31:32;;;;;;;;;;;5.60;99.90;;;;;;5094306;28;19912;-73
2021/03/12 01:33:58;;;;;;;;;;;5.70;99.90;;;;;;5094639;28;20297;-77
2021/03/12 01:36:24;;;;;;;;;;;5.70;99.90;;;;;;5093968;28;19908;-72
2021/03/12 01:38:50;;;;;;;;;;;5.70;99.90;;;;;;5078286;28;20436;-77
2021/03/12 01:41:16;;;;;;;;;;;5.70;99.90;;;;;;5094938;28;19927;-74
2021/03/12 01:43:42;;;;;;;;;;;5.70;99.90;;;;;;5076804;28;19908;-76
2021/03/12 01:46:07;;;;;;;;;;;5.70;99.90;;;;;;5077872;28;19943;-76
2021/03/12 01:48:33;;;;;;;;;;;5.60;99.90;;;;;;5094739;28;20310;-76
2021/03/12 01:51:00;;;;;;;;;;;5.70;99.90;;;;;;5093956;28;20356;-80
2021/03/12 01:53:26;;;;;;;;;;;5.80;99.90;;;;;;5076499;28;20473;-77
2021/03/12 01:55:53;;;;;;;;;;;5.80;99.90;;;;;;5062379;28;19908;-73
2021/03/12 01:58:19;;;;;;;;;;;5.80;99.90;;;;;;5075629;28;19920;-78
2021/03/12 02:00:45;;;;;;;;;;;5.70;99.90;;;;;;5091009;28;19915;-78
2021/03/12 02:03:11;;;;;;;;;;;5.70;99.90;;;;;;5078352;28;20050;-74
2021/03/12 02:05:37;;;;;;;;;;;5.70;99.90;;;;;;5079138;28;19908;-74
2021/03/12 02:08:03;;;;;;;;;;;5.60;99.90;;;;;;5092296;28;20386;-75
2021/03/12 02:10:29;;;;;;;;;;;5.70;99.90;;;;;;5075990;28;19911;-74
2021/03/12 02:13:16;;;;;;;;;;;5.70;99.90;;;;;;5078592;28;19946;-74
2021/03/12 02:15:43;;;;;;;;;;;5.70;99.90;;;;;;5091275;28;19912;-73
2021/03/12 02:18:19;;;;;;;;;;;5.80;99.90;;;;;;5076774;28;19912;-74
2021/03/12 02:20:46;;;;;;;;;;;5.80;99.90;;;;;;5093245;28;19908;-74
2021/03/12 02:23:18;;;;;;;;;;;5.80;99.90;;;;;;5093574;28;19908;-72
2021/03/12 02:25:45;;;;;;;;;;;5.80;99.90;;;;;;5074735;28;19904;-72
2021/03/12 02:28:11;;;;;;;;;;;5.80;99.90;;;;;;5092687;28;19924;-71
2021/03/12 02:30:37;;;;;;;;;;;5.80;99.90;;;;;;5075137;28;19938;-71
2021/03/12 02:33:03;;;;;;;;;;;5.80;99.90;;;;;;5079614;28;20352;-70
2021/03/12 02:35:29;;;;;;;;;;;5.90;99.90;;;;;;5092713;28;19912;-73
2021/03/12 02:37:55;;;;;;;;;;;5.90;99.90;;;;;;5077126;28;19916;-73
2021/03/12 02:40:21;;;;;;;;;;;5.90;99.90;;;;;;5075717;28;19916;-73
2021/03/12 02:42:47;;;;;;;;;;;5.90;99.90;;;;;;5077913;28;19912;-71
2021/03/12 02:45:13;;;;;;;;;;;5.90;99.90;;;;;;5088160;28;19947;-72
2021/03/12 02:47:39;;;;;;;;;;;5.80;99.90;;;;;;5091787;28;19908;-71
2021/03/12 02:50:06;;;;;;;;;;;5.80;99.90;;;;;;5075162;28;19908;-71
2021/03/12 02:52:32;;;;;;;;;;;5.80;99.90;;;;;;5075506;28;19919;-71
2021/03/12 02:54:58;;;;;;;;;;;5.80;99.90;;;;;;5092816;28;20325;-71
2021/03/12 02:57:24;;;;;;;;;;;5.80;99.90;;;;;;5076355;28;19908;-69
2021/03/12 02:59:51;;;;;;;;;;;5.80;99.90;;;;;;5077635;28;19943;-70
2021/03/12 03:02:17;;;;;;;;;;;5.80;99.90;;;;;;5092607;28;19923;-71
2021/03/12 03:04:43;;;;;;;;;;;5.80;99.90;;;;;;5092826;28;19919;-70
2021/03/12 03:07:09;;;;;;;;;;;5.80;99.90;;;;;;5092501;28;19911;-73
2021/03/12 03:09:36;;;;;;;;;;;5.80;99.90;;;;;;5092471;28;20298;-69
2021/03/12 03:12:02;;;;;;;;;;;5.80;99.90;;;;;;5090038;28;19908;-70
2021/03/12 03:14:28;;;;;;;;;;;5.80;99.90;;;;;;5091089;28;19923;-70
2021/03/12 03:16:54;;;;;;;;;;;5.90;99.90;;;;;;5091573;28;19919;-70
2021/03/12 03:19:20;;;;;;;;;;;5.90;99.90;;;;;;5091982;28;19924;-70
2021/03/12 03:21:46;;;;;;;;;;;5.90;99.90;;;;;;5092276;28;19969;-70
2021/03/12 03:24:12;;;;;;;;;;;5.90;99.90;;;;;;5091932;28;19926;-70
2021/03/12 03:26:38;;;;;;;;;;;5.90;99.90;;;;;;5092263;28;19919;-71
2021/03/12 03:29:04;;;;;;;;;;;5.90;99.90;;;;;;5075508;28;19924;-69
2021/03/12 03:31:30;;;;;;;;;;;5.90;99.90;;;;;;5091534;28;19912;-70
2021/03/12 03:33:56;;;;;;;;;;;5.90;99.90;;;;;;5091571;28;19916;-69
2021/03/12 03:36:22;;;;;;;;;;;5.90;99.90;;;;;;5091441;28;19966;-70
2021/03/12 03:38:48;;;;;;;;;;;5.90;99.90;;;;;;5091851;28;20360;-71
2021/03/12 03:41:14;;;;;;;;;;;5.90;99.90;;;;;;5091774;28;19912;-70
2021/03/12 03:43:41;;;;;;;;;;;5.90;99.90;;;;;;5090693;28;19915;-72
2021/03/12 03:46:07;;;;;;;;;;;5.90;99.90;;;;;;5074865;28;19908;-73
2021/03/12 03:48:36;;;;;;;;;;;5.90;99.90;;;;;;5088085;28;19923;-69
2021/03/12 03:51:05;;;;;;;;;;;5.90;99.90;;;;;;5072475;28;19911;-70
2021/03/12 03:53:31;;;;;;;;;;;5.90;99.90;;;;;;5075888;28;19919;-70
2021/03/12 03:56:00;;;;;;;;;;;5.90;99.90;;;;;;5076203;28;19920;-70
2021/03/12 03:58:26;;;;;;;;;;;6.10;99.90;;;;;;5074177;28;19924;-70
2021/03/12 04:00:52;;;;;;;;;;;6.00;99.90;;;;;;5078262;28;19920;-70
2021/03/12 04:03:18;;;;;;;;;;;6.00;99.90;;;;;;5095773;28;19947;-71
2021/03/12 04:05:44;;;;;;;;;;;6.00;99.90;;;;;;5095827;28;20014;-72
2021/03/12 04:08:10;;;;;;;;;;;6.00;99.90;;;;;;5093585;28;20014;-75
2021/03/12 04:10:36;;;;;;;;;;;6.00;99.90;;;;;;5095645;28;19927;-73
2021/03/12 04:13:02;;;;;;;;;;;6.10;99.90;;;;;;5095664;28;19912;-72
2021/03/12 04:15:28;;;;;;;;;;;6.10;99.90;;;;;;5060518;28;19919;-72
2021/03/12 04:17:54;;;;;;;;;;;6.10;99.90;;;;;;5077847;28;19912;-71
2021/03/12 04:20:20;;;;;;;;;;;6.10;99.90;;;;;;5060568;28;19912;-69
2021/03/12 04:22:46;;;;;;;;;;;6.10;99.90;;;;;;5077590;28;20375;-71
2021/03/12 04:25:12;;;;;;;;;;;6.00;99.90;;;;;;5094930;28;20012;-72
2021/03/12 04:27:38;;;;;;;;;;;6.10;99.90;;;;;;5092202;28;19919;-73
2021/03/12 04:30:05;;;;;;;;;;;6.00;99.90;;;;;;5095428;28;19951;-73
2021/03/12 04:32:31;;;;;;;;;;;6.00;99.90;;;;;;5095088;28;19919;-73
2021/03/12 04:34:57;;;;;;;;;;;6.10;99.90;;;;;;5095412;28;20314;-74
2021/03/12 04:37:23;;;;;;;;;;;6.10;99.90;;;;;;5078452;28;20307;-70
2021/03/12 04:39:49;;;;;;;;;;;6.10;99.90;;;;;;5095312;28;19920;-72
2021/03/12 04:42:15;;;;;;;;;;;6.10;99.90;;;;;;5080849;28;19908;-72
2021/03/12 04:44:41;;;;;;;;;;;6.10;99.90;;;;;;5076438;28;19924;-72
2021/03/12 04:47:07;;;;;;;;;;;6.10;99.90;;;;;;5078309;28;19912;-72
2021/03/12 04:49:33;;;;;;;;;;;6.10;99.90;;;;;;5079998;28;19914;-71
2021/03/12 04:51:59;;;;;;;;;;;6.10;99.90;;;;;;5095130;28;19920;-72
2021/03/12 04:54:25;;;;;;;;;;;6.10;99.90;;;;;;5077595;28;19915;-72
2021/03/12 04:56:51;;;;;;;;;;;6.10;99.90;;;;;;5063166;28;19908;-71
2021/03/12 04:59:17;;;;;;;;;;;6.10;99.90;;;;;;5094956;28;19935;-73
2021/03/12 05:01:43;;;;;;;;;;;6.10;99.90;;;;;;5079052;28;19939;-69
2021/03/12 05:04:10;;;;;;;;;;;6.10;99.90;;;;;;5094665;28;19912;-71
2021/03/12 05:06:40;;;;;;;;;;;6.10;99.90;;;;;;5094465;28;19912;-72
2021/03/12 05:09:08;;;;;;;;;;;6.10;99.90;;;;;;5076422;28;19915;-72
2021/03/12 05:11:34;;;;;;;;;;;6.10;99.90;;;;;;5082829;28;19904;-72
2021/03/12 05:14:00;;;;;;;;;;;6.10;99.90;;;;;;5072341;28;19916;-72
2021/03/12 05:16:26;;;;;;;;;;;6.00;99.90;;;;;;5094308;28;19974;-74
2021/03/12 05:18:52;;;;;;;;;;;6.00;99.90;;;;;;5076049;28;19926;-72
2021/03/12 05:21:18;;;;;;;;;;;6.00;99.90;;;;;;5083471;28;19916;-73
2021/03/12 05:23:43;;;;;;;;;;;6.10;99.90;;;;;;5076359;28;19904;-73
2021/03/12 05:26:10;;;;;;;;;;;6.10;99.90;;;;;;5094453;28;20279;-71
2021/03/12 05:28:36;;;;;;;;;;;6.10;99.90;;;;;;5084237;28;19920;-73
2021/03/12 05:31:02;;;;;;;;;;;6.10;99.90;;;;;;5075211;28;19907;-72
2021/03/12 05:33:28;;;;;;;;;;;6.10;99.90;;;;;;5093588;28;20265;-72
2021/03/12 05:35:54;;;;;;;;;;;6.00;99.90;;;;;;5093626;28;20326;-72
2021/03/12 05:38:20;;;;;;;;;;;6.00;99.90;;;;;;5093170;28;19939;-72
2021/03/12 05:40:46;;;;;;;;;;;6.00;99.90;;;;;;5094294;28;19969;-73
2021/03/12 05:43:12;;;;;;;;;;;6.00;99.90;;;;;;5093867;28;19973;-73
2021/03/12 05:45:38;;;;;;;;;;;6.00;99.90;;;;;;5089050;28;20099;-72
2021/03/12 05:48:04;;;;;;;;;;;5.90;99.90;;;;;;5075625;28;19919;-73
2021/03/12 05:50:31;;;;;;;;;;;5.90;99.90;;;;;;5088085;28;19927;-73
2021/03/12 05:52:57;;;;;;;;;;;5.90;99.90;;;;;;5074504;28;19904;-72
2021/03/12 05:55:22;;;;;;;;;;;6.00;99.90;;;;;;5093299;28;19957;-73
2021/03/12 05:57:49;;;;;;;;;;;6.00;99.90;;;;;;5093650;28;19915;-73
2021/03/12 06:00:15;;;;;;;;;;;6.00;99.90;;;;;;5093693;28;19912;-72
2021/03/12 06:02:41;;;;;;;;;;;6.00;99.90;;;;;;5075795;28;19911;-73
2021/03/12 06:05:07;;;;;;;;;;;6.00;99.90;;;;;;5094030;28;19912;-74
2021/03/12 06:07:34;;;;;;;;;;;6.00;99.90;;;;;;5093607;28;19915;-73
2021/03/12 06:10:00;;;;;;;;;;;6.00;99.90;;;;;;5093740;28;19904;-73
2021/03/12 06:12:26;;;;;;;;;;;6.00;99.90;;;;;;5093566;28;19927;-74
2021/03/12 06:14:58;;;;;;;;;;;6.00;99.90;;;;;;5093077;28;20011;-75
2021/03/12 06:17:40;;;;;;;;;;;6.00;99.90;;;;;;5088616;28;19919;-73
2021/03/12 06:20:07;;;;;;;;;;;6.00;99.90;;;;;;5082483;28;19935;-73
2021/03/12 06:22:34;;;;;;;;;;;6.00;99.90;;;;;;5091440;28;19908;-73
2021/03/12 06:25:19;;;;;;;;;;;6.00;99.90;;;;;;5092031;28;19931;-74
2021/03/12 06:27:46;;;;;;;;;;;6.00;99.90;;;;;;5089528;28;20006;-73
2021/03/12 06:30:12;;;;;;;;;;;6.00;99.90;;;;;;5071346;28;19907;-74
2021/03/12 06:32:48;;;;;;;;;;;6.00;99.90;;;;;;5083021;28;19923;-75
2021/03/12 06:35:18;;;;;;;;;;;6.00;99.90;;;;;;5071904;28;19912;-73
2021/03/12 06:37:47;;;;;;;;;;;6.10;99.90;;;;;;5090544;28;20368;-74
2021/03/12 06:40:13;;;;;;;;;;;6.00;99.90;;;;;;5090710;28;19919;-75
2021/03/12 06:42:56;;;;;;;;;;;6.00;99.90;;;;;;5090872;28;19954;-73
2021/03/12 06:45:22;;;;;;;;;;;6.10;99.90;;;;;;5085354;28;19915;-74
2021/03/12 06:47:48;;;;;;;;;;;6.10;99.90;;;;;;5089872;28;19912;-74
2021/03/12 06:50:13;;;;;;;;;;;6.10;99.90;;;;;;5088966;28;19919;-72
2021/03/12 06:52:39;;;;;;;;;;;6.20;99.90;;;;;;5091443;28;19920;-73
2021/03/12 06:55:06;;;;;;;;;;;6.20;99.90;;;;;;5090144;28;19959;-71
2021/03/12 06:57:32;;;;;;;;;;;6.20;99.90;;;;;;5088749;28;19912;-74
2021/03/12 06:59:58;;;;;;;;;;;6.20;99.90;;;;;;5089020;28;19928;-75
2021/03/12 07:02:31;;;;;;;;;;;6.20;99.90;;;;;;5090808;28;19912;-75
2021/03/12 07:04:57;;;;;;;;;;;6.30;99.90;;;;;;5089765;28;19930;-76
2021/03/12 07:07:33;;;;;;;;;;;6.30;99.90;;;;;;5090722;28;19920;-75
2021/03/12 07:09:59;;;;;;;;;;;6.30;99.90;;;;;;5089712;28;19919;-75
2021/03/12 07:12:44;;;;;;;;;;;6.30;99.90;;;;;;5090252;28;19916;-74
2021/03/12 07:15:11;;;;;;;;;;;6.30;99.90;;;;;;5089418;28;19915;-73
2021/03/12 07:17:37;;;;;;;;;;;6.30;99.90;;;;;;5082984;28;19928;-75
2021/03/12 07:20:04;;;;;;;;;;;6.30;99.90;;;;;;5088678;28;19923;-73
2021/03/12 07:22:30;;;;;;;;;;;6.30;99.90;;;;;;5090516;28;20299;-73
2021/03/12 07:24:56;;;;;;;;;;;6.40;99.90;;;;;;5080803;28;19915;-75
2021/03/12 07:27:22;;;;;;;;;;;6.40;99.90;;;;;;5090252;28;19911;-73
2021/03/12 07:29:48;;;;;;;;;;;6.40;99.90;;;;;;5069532;28;19916;-74
2021/03/12 07:32:14;;;;;;;;;;;6.40;99.90;;;;;;5061701;28;19916;-73
2021/03/12 07:34:40;;;;;;;;;;;6.40;99.90;;;;;;5089760;28;19915;-74
2021/03/12 07:37:06;;;;;;;;;;;6.50;99.90;;;;;;5089742;28;19908;-74
2021/03/12 07:39:34;;;;;;;;;;;6.50;99.90;;;;;;5069123;28;19939;-73
2021/03/12 07:42:00;;;;;;;;;;;6.50;99.90;;;;;;5089664;28;19912;-73
2021/03/12 07:44:26;;;;;;;;;;;6.50;99.90;;;;;;5062343;28;19916;-73
2021/03/12 07:46:52;;;;;;;;;;;6.60;99.90;;;;;;5078584;28;19912;-74
2021/03/12 07:49:28;;;;;;;;;;;6.60;99.90;;;;;;5078203;28;19915;-75
2021/03/12 07:51:54;;;;;;;;;;;6.60;99.90;;;;;;5088353;28;19923;-74
2021/03/12 07:54:35;;;;;;;;;;;6.60;99.90;;;;;;5088668;28;20363;-74
2021/03/12 07:57:01;;;;;;;;;;;6.60;99.90;;;;;;5092028;28;19916;-74
2021/03/12 07:59:47;;;;;;;;;;;6.60;99.90;;;;;;5072735;28;19923;-75
2021/03/12 08:02:13;;;;;;;;;;;6.50;99.90;;;;;;5072615;28;19916;-74
2021/03/12 08:04:39;;;;;;;;;;;6.60;99.90;;;;;;5091923;28;19916;-74
2021/03/12 08:07:17;;;;;;;;;;;6.60;99.90;;;;;;5091316;28;19912;-74
2021/03/12 08:09:44;;;;;;;;;;;6.60;99.90;;;;;;5091598;28;19931;-73
2021/03/12 08:12:39;;;;;;;;;;;6.60;99.90;;;;;;5080135;28;19908;-73
2021/03/12 08:15:11;;;;;;;;;;;6.60;99.90;;;;;;5084860;28;19908;-75
2021/03/12 08:17:37;;;;;;;;;;;6.60;99.90;;;;;;5091921;28;19915;-74
2021/03/12 08:20:22;;;;;;;;;;;6.70;99.90;;;;;;5061554;28;20334;-75
2021/03/12 08:22:48;;;;;;;;;;;6.60;99.90;;;;;;5091573;28;19915;-73
2021/03/12 08:25:14;;;;;;;;;;;6.70;99.90;;;;;;5076334;28;19912;-74
2021/03/12 08:27:46;;;;;;;;;;;6.70;99.90;;;;;;5091475;28;20025;-74
2021/03/12 08:30:35;;;;;;;;;;;6.70;99.90;;;;;;5091131;28;20275;-76
2021/03/12 08:33:08;;;;;;;;;;;6.70;99.90;;;;;;5091478;28;19974;-75
2021/03/12 08:38:00;;;;;;;;;;;6.70;99.90;;;;;;5090544;28;19966;-76
2021/03/12 08:40:26;;;;;;;;;;;6.60;99.90;;;;;;5091222;28;20368;-74
2021/03/12 08:43:06;;;;;;;;;;;6.60;99.90;;;;;;5091302;28;20394;-74
2021/03/12 08:45:33;;;;;;;;;;;6.70;99.90;;;;;;5083886;28;20288;-74
2021/03/12 08:48:03;;;;;;;;;;;6.70;99.90;;;;;;5094358;28;20272;-74
2021/03/12 08:50:29;;;;;;;;;;;6.80;99.90;;;;;;5076016;28;19916;-75
2021/03/12 08:52:55;;;;;;;;;;;6.80;99.90;;;;;;5094025;28;19927;-73
2021/03/12 08:55:20;;;;;;;;;;;6.80;99.90;;;;;;5094896;28;20283;-74
2021/03/12 08:57:46;;;;;;;;;;;6.70;99.90;;;;;;5087488;28;20425;-72
2021/03/12 09:00:14;;;;;;;;;;;6.70;99.90;;;;;;5094381;28;20326;-74
2021/03/12 09:02:40;;;;;;;;;;;6.80;99.90;;;;;;5094866;28;19916;-74
2021/03/12 09:05:25;;;;;;;;;;;6.70;99.90;;;;;;5094899;28;19974;-73
2021/03/12 09:07:51;;;;;;;;;;;6.70;99.90;;;;;;5078021;28;19907;-76
2021/03/12 09:10:27;;;;;;;;;;;6.60;99.90;;;;;;5076516;28;19915;-74
2021/03/12 09:12:53;;;;;;;;;;;6.60;99.90;;;;;;5093949;28;20360;-75
2021/03/12 09:15:25;;;;;;;;;;;6.60;99.90;;;;;;5093758;28;19916;-76
2021/03/12 09:17:57;;;;;;;;;;;6.60;99.90;;;;;;5092166;28;19916;-74
2021/03/12 09:20:23;;;;;;;;;;;6.70;99.90;;;;;;5094652;28;20357;-75
2021/03/12 09:22:50;;;;;;;;;;;6.80;99.90;;;;;;5094953;28;19920;-74
2021/03/12 09:25:23;;;;;;;;;;;6.80;99.90;;;;;;5094190;28;19912;-76
2021/03/12 09:28:01;;;;;;;;;;;6.80;99.90;;;;;;5075511;28;19943;-74
2021/03/12 09:30:28;;;;;;;;;;;6.90;99.90;;;;;;5094441;28;19908;-75
2021/03/12 09:32:54;;;;;;;;;;;6.90;99.90;;;;;;5094516;28;19908;-78
2021/03/12 09:35:20;;;;;;;;;;;6.90;99.90;;;;;;5074733;28;20027;-78
2021/03/12 09:37:45;;;;;;;;;;;6.70;99.90;;;;;;5093159;28;19908;-74
2021/03/12 09:40:30;;;;;;;;;;;6.70;99.90;;;;;;5094295;28;19923;-75
2021/03/12 09:42:56;;;;;;;;;;;6.70;99.90;;;;;;5093110;28;20372;-73
2021/03/12 09:45:25;;;;;;;;;;;6.60;99.90;;;;;;5092826;28;19996;-77
2021/03/12 09:47:51;;;;;;;;;;;6.60;99.90;;;;;;5093409;28;19912;-75
2021/03/12 09:50:17;;;;;;;;;;;6.60;99.90;;;;;;5076170;28;19904;-74
2021/03/12 09:52:44;;;;;;;;;;;6.60;99.90;;;;;;5091184;28;20010;-76
2021/03/12 09:55:10;;;;;;;;;;;6.60;99.90;;;;;;5094218;28;20002;-77
2021/03/12 09:57:36;;;;;;;;;;;6.60;99.90;;;;;;5077970;28;19912;-74
2021/03/12 10:00:04;;;;;;;;;;;6.50;99.90;;;;;;5077306;28;19935;-75
2021/03/12 10:02:30;;;;;;;;;;;6.50;99.90;;;;;;5093200;28;19915;-74
2021/03/12 10:04:59;;;;;;;;;;;6.50;99.90;;;;;;5093771;28;20364;-75
2021/03/12 10:07:34;;;;;;;;;;;6.50;99.90;;;;;;5092848;28;19916;-73
2021/03/12 10:10:05;;;;;;;;;;;6.50;99.90;;;;;;5076023;28;19908;-75
2021/03/12 10:12:31;;;;;;;;;;;6.40;99.90;;;;;;5075658;28;19919;-74
2021/03/12 10:15:13;;;;;;;;;;;6.50;99.90;;;;;;5091736;28;19916;-76
2021/03/12 10:17:39;;;;;;;;;;;6.60;99.90;;;;;;5092937;28;19920;-76
2021/03/12 10:20:08;;;;;;;;;;;6.70;99.90;;;;;;5092542;28;20356;-75
2021/03/12 10:22:34;;;;;;;;;;;6.70;99.90;;;;;;5091441;28;19915;-73
2021/03/12 10:25:13;;;;;;;;;;;6.70;99.90;;;;;;5093276;28;20003;-73
2021/03/12 10:27:42;;;;;;;;;;;6.80;99.90;;;;;;5053710;28;20360;-75
2021/03/12 10:30:09;;;;;;;;;;;6.90;99.90;;;;;;5072841;28;19908;-78
2021/03/12 10:32:39;;;;;;;;;;;7.00;99.90;;;;;;5072292;28;19912;-75
2021/03/12 10:35:13;;;;;;;;;;;7.10;99.90;;;;;;5055208;28;19916;-74
2021/03/12 10:37:39;;;;;;;;;;;7.10;99.90;;;;;;5071088;28;20372;-75
2021/03/12 10:40:06;;;;;;;;;;;7.10;99.90;;;;;;5072078;28;19942;-74
2021/03/12 10:42:32;;;;;;;;;;;7.10;99.90;;;;;;5069575;28;20369;-76
2021/03/12 10:44:58;;;;;;;;;;;7.00;99.90;;;;;;5070768;28;19920;-75
2021/03/12 10:47:24;;;;;;;;;;;7.00;99.90;;;;;;5070497;28;20316;-76
2021/03/12 10:49:50;;;;;;;;;;;6.80;99.90;;;;;;5070065;28;20287;-74
2021/03/12 10:52:29;;;;;;;;;;;6.80;99.90;;;;;;5071989;28;19912;-74
2021/03/12 10:55:08;;;;;;;;;;;6.90;99.90;;;;;;5065010;28;20292;-73
2021/03/12 10:57:41;;;;;;;;;;;6.90;99.90;;;;;;5070736;28;20254;-74
2021/03/12 11:00:08;;;;;;;;;;;7.00;99.90;;;;;;5070169;28;19917;-74
2021/03/12 11:02:34;;;;;;;;;;;7.10;99.90;;;;;;5070468;28;19927;-74
2021/03/12 11:05:01;;;;;;;;;;;7.10;99.90;;;;;;5070815;28;19915;-75
2021/03/12 11:07:27;;;;;;;;;;;7.30;99.90;;;;;;5070092;28;19916;-75
2021/03/12 11:09:52;;;;;;;;;;;7.30;99.90;;;;;;5070761;28;20018;-74
2021/03/12 11:12:18;;;;;;;;;;;7.40;99.90;;;;;;5072320;28;19915;-77
2021/03/12 11:14:46;;;;;;;;;;;7.40;99.90;;;;;;5071528;28;20007;-76
2021/03/12 11:17:12;;;;;;;;;;;7.30;99.90;;;;;;5070689;28;19908;-77
2021/03/12 11:19:38;;;;;;;;;;;7.30;99.90;;;;;;5071597;28;20273;-75
2021/03/12 11:22:04;;;;;;;;;;;7.10;99.90;;;;;;5070610;28;20372;-74
2021/03/12 11:24:30;;;;;;;;;;;6.80;99.90;;;;;;5071768;28;19928;-77
2021/03/12 11:26:56;;;;;;;;;;;6.90;99.90;;;;;;5071784;28;19927;-78
2021/03/12 11:29:22;;;;;;;;;;;6.90;99.90;;;;;;5090638;28;19923;-75
2021/03/12 11:31:48;;;;;;;;;;;6.90;99.90;;;;;;5092227;28;19912;-77
2021/03/12 11:34:14;;;;;;;;;;;7.00;99.90;;;;;;5091952;28;19907;-75
2021/03/12 11:36:40;;;;;;;;;;;7.10;99.90;;;;;;5090979;28;20380;-76
2021/03/12 11:39:06;;;;;;;;;;;7.20;99.90;;;;;;5091993;28;19930;-73
2021/03/12 11:41:32;;;;;;;;;;;7.30;99.90;;;;;;5091693;28;20391;-75
2021/03/12 11:43:58;;;;;;;;;;;7.10;99.90;;;;;;5091521;28;19916;-75
2021/03/12 11:46:24;;;;;;;;;;;6.90;99.90;;;;;;5074046;28;19912;-74
2021/03/12 11:48:50;;;;;;;;;;;6.80;99.90;;;;;;5091894;28;19916;-75
2021/03/12 11:51:16;;;;;;;;;;;6.80;99.90;;;;;;5091349;28;19919;-75
2021/03/12 11:53:42;;;;;;;;;;;6.70;99.90;;;;;;5092573;28;19911;-75
2021/03/12 11:56:08;;;;;;;;;;;6.70;99.90;;;;;;5091521;28;19912;-76
2021/03/12 11:58:34;;;;;;;;;;;6.70;99.90;;;;;;5075046;28;21655;-75
2021/03/12 12:01:00;;;;;;;;;;;6.80;99.90;;;;;;5091993;28;19947;-77
2021/03/12 12:03:26;;;;;;;;;;;6.90;99.90;;;;;;5075647;28;19912;-75
2021/03/12 12:05:52;;;;;;;;;;;7.00;99.90;;;;;;5092050;28;20435;-74
2021/03/12 12:08:18;;;;;;;;;;;7.40;99.90;;;;;;5091546;28;19908;-77
2021/03/12 12:10:44;;;;;;;;;;;7.40;99.90;;;;;;5091687;28;19965;-74
2021/03/12 12:13:10;;;;;;;;;;;7.20;99.90;;;;;;5091749;28;19977;-75
2021/03/12 12:15:36;;;;;;;;;;;7.10;99.90;;;;;;5090805;28;19945;-76
2021/03/12 12:18:05;;;;;;;;;;;7.10;99.90;;;;;;5091665;28;20334;-78
2021/03/12 12:20:31;;;;;;;;;;;6.90;99.90;;;;;;5076290;28;19919;-77
2021/03/12 12:23:00;;;;;;;;;;;6.90;99.90;;;;;;5079047;28;19939;-77
2021/03/12 12:25:26;;;;;;;;;;;7.10;99.90;;;;;;5094979;28;19916;-75
2021/03/12 12:27:52;;;;;;;;;;;7.00;99.90;;;;;;5094799;28;20390;-74
2021/03/12 12:30:18;;;;;;;;;;;7.10;99.90;;;;;;5094330;28;19912;-73
2021/03/12 12:32:44;;;;;;;;;;;7.20;99.90;;;;;;5094721;28;19908;-76
2021/03/12 12:35:10;;;;;;;;;;;7.20;99.90;;;;;;5094951;28;20433;-73
2021/03/12 12:37:36;;;;;;;;;;;7.20;99.90;;;;;;5092685;28;19915;-76
2021/03/12 12:40:03;;;;;;;;;;;7.30;99.90;;;;;;5095199;28;19920;-78
2021/03/12 12:42:29;;;;;;;;;;;7.10;99.90;;;;;;5094941;28;19912;-76
2021/03/12 12:44:55;;;;;;;;;;;6.90;99.90;;;;;;5093922;28;19911;-75
2021/03/12 12:47:21;;;;;;;;;;;7.00;99.90;;;;;;5091118;28;19912;-75
2021/03/12 12:49:47;;;;;;;;;;;7.00;99.90;;;;;;5094978;28;19923;-74
2021/03/12 12:52:13;;;;;;;;;;;6.90;99.90;;;;;;5079444;28;20318;-76
2021/03/12 12:54:39;;;;;;;;;;;6.90;99.90;;;;;;5095107;28;20372;-75
2021/03/12 12:57:05;;;;;;;;;;;6.80;99.90;;;;;;5094632;28;19955;-74
2021/03/12 12:59:31;;;;;;;;;;;6.80;99.90;;;;;;5076757;28;19912;-77
2021/03/12 13:01:56;;;;;;;;;;;6.60;99.90;;;;;;5094567;28;19962;-76
2021/03/12 13:04:22;;;;;;;;;;;6.50;99.90;;;;;;5095062;28;19943;-75
2021/03/12 13:06:48;;;;;;;;;;;6.40;99.90;;;;;;5094811;28;19947;-74
2021/03/12 13:09:14;;;;;;;;;;;6.30;99.90;;;;;;5094420;28;20306;-74
2021/03/12 13:11:40;;;;;;;;;;;6.10;99.90;;;;;;5095258;28;19951;-75
2021/03/12 13:14:06;;;;;;;;;;;6.10;99.90;;;;;;5093971;28;19908;-73
2021/03/12 13:16:32;;;;;;;;;;;6.10;99.90;;;;;;5093747;28;20252;-73
2021/03/12 13:18:58;;;;;;;;;;;6.20;99.90;;;;;;5093397;28;20337;-74
2021/03/12 13:21:24;;;;;;;;;;;6.20;99.90;;;;;;5076514;28;19928;-76
2021/03/12 13:23:51;;;;;;;;;;;6.30;99.90;;;;;;5078086;28;20344;-74
2021/03/12 13:26:17;;;;;;;;;;;6.20;99.90;;;;;;5093142;28;19912;-74
2021/03/12 13:28:44;;;;;;;;;;;6.20;99.90;;;;;;5061408;28;19934;-77
2021/03/12 13:31:11;;;;;;;;;;;6.30;99.90;;;;;;5094367;28;20288;-78
2021/03/12 13:33:37;;;;;;;;;;;6.30;99.90;;;;;;5094008;28;19912;-75
2021/03/12 13:36:03;;;;;;;;;;;6.40;99.90;;;;;;5093560;28;19916;-74
2021/03/12 13:38:29;;;;;;;;;;;6.50;99.90;;;;;;5093008;28;19926;-71
2021/03/12 13:40:56;;;;;;;;;;;7.00;99.90;;;;;;5093347;28;19924;-77
2021/03/12 13:43:22;;;;;;;;;;;6.90;99.90;;;;;;5093798;28;19920;-74
2021/03/12 13:45:48;;;;;;;;;;;6.80;99.90;;;;;;5093022;28;19915;-73
2021/03/12 13:48:14;;;;;;;;;;;6.70;99.90;;;;;;5093452;28;20050;-75
2021/03/12 13:50:40;;;;;;;;;;;6.70;99.90;;;;;;5092370;28;20011;-75
2021/03/12 13:53:06;;;;;;;;;;;6.60;99.90;;;;;;5093485;28;19908;-74
2021/03/12 13:55:32;;;;;;;;;;;6.50;99.90;;;;;;5092962;28;19912;-75
2021/03/12 13:57:58;;;;;;;;;;;6.50;99.90;;;;;;5091877;28;19912;-78
2021/03/12 14:00:24;;;;;;;;;;;6.40;99.90;;;;;;5076747;28;19920;-77
2021/03/12 14:02:50;;;;;;;;;;;6.20;99.90;;;;;;5091421;28;19912;-74
2021/03/12 14:05:16;;;;;;;;;;;6.20;99.90;;;;;;5091807;28;19908;-76
2021/03/12 14:07:42;;;;;;;;;;;6.20;99.90;;;;;;5073710;28;19911;-74
2021/03/12 14:10:09;;;;;;;;;;;6.10;99.90;;;;;;5091959;28;19908;-76
2021/03/12 14:12:35;;;;;;;;;;;6.00;99.90;;;;;;5077897;28;20454;-77
2021/03/12 14:15:01;;;;;;;;;;;6.00;99.90;;;;;;5075780;28;19904;-75
2021/03/12 14:17:27;;;;;;;;;;;6.00;99.90;;;;;;5093001;28;19908;-77
2021/03/12 14:19:53;;;;;;;;;;;6.00;99.90;;;;;;5093602;28;19943;-76
2021/03/12 14:22:18;;;;;;;;;;;5.90;99.90;;;;;;5093360;28;19912;-77
2021/03/12 14:24:44;;;;;;;;;;;5.80;99.90;;;;;;5093210;28;20283;-80
2021/03/12 14:27:10;;;;;;;;;;;5.80;99.90;;;;;;5077650;28;19972;-78
2021/03/12 14:29:36;;;;;;;;;;;5.70;99.90;;;;;;5075747;28;19919;-76
2021/03/12 14:32:02;;;;;;;;;;;5.70;99.90;;;;;;5077766;28;19947;-77
2021/03/12 14:34:28;;;;;;;;;;;5.70;99.90;;;;;;5092945;28;19919;-79